sensor_id;sensor_type;location;lat;lon;timestamp;P1;durP1;ratioP1;P2;durP2;ratioP2
75984;SDS011;65033;44.660;37.758;2024-03-08T00:01:15;7.93;;;5.40;;
75984;SDS011;65033;44.660;37.758;2024-03-08T00:02:19;7.55;;;5.38;;
75984;SDS011;65033;44.660;37.758;2024-03-08T00:03:24;8.77;;;4.70;;
75984;SDS011;65033;44.660;37.758;2024-03-08T00:04:32;9.27;;;5.68;;
75984;SDS011;65033;44.660;37.758;2024-03-08T00:05:36;7.45;;;4.75;;
75984;SDS011;65033;44.660;37.758;2024-03-08T00:06:45;7.60;;;5.22;;
75984;SDS011;65033;44.660;37.758;2024-03-08T00:08:56;9.18;;;5.30;;
75984;SDS011;65033;44.660;37.758;2024-03-08T00:10:00;9.60;;;5.80;;
75984;SDS011;65033;44.660;37.758;2024-03-08T00:11:04;8.32;;;6.22;;
75984;SDS011;65033;44.660;37.758;2024-03-08T00:12:07;9.05;;;5.82;;
75984;SDS011;65033;44.660;37.758;2024-03-08T00:13:11;7.60;;;5.32;;
75984;SDS011;65033;44.660;37.758;2024-03-08T00:14:15;7.25;;;5.15;;
75984;SDS011;65033;44.660;37.758;2024-03-08T00:15:19;8.32;;;5.53;;
75984;SDS011;65033;44.660;37.758;2024-03-08T00:16:25;7.90;;;6.50;;
75984;SDS011;65033;44.660;37.758;2024-03-08T00:17:30;11.15;;;6.05;;
75984;SDS011;65033;44.660;37.758;2024-03-08T00:18:34;9.73;;;5.75;;
75984;SDS011;65033;44.660;37.758;2024-03-08T00:19:37;9.52;;;6.47;;
75984;SDS011;65033;44.660;37.758;2024-03-08T00:20:42;9.02;;;6.00;;
75984;SDS011;65033;44.660;37.758;2024-03-08T00:21:49;9.13;;;5.60;;
75984;SDS011;65033;44.660;37.758;2024-03-08T00:22:52;8.38;;;5.93;;
75984;SDS011;65033;44.660;37.758;2024-03-08T00:23:56;9.20;;;5.82;;
75984;SDS011;65033;44.660;37.758;2024-03-08T00:25:00;8.77;;;5.63;;
75984;SDS011;65033;44.660;37.758;2024-03-08T00:26:04;8.20;;;5.43;;
75984;SDS011;65033;44.660;37.758;2024-03-08T00:27:09;8.45;;;5.55;;
75984;SDS011;65033;44.660;37.758;2024-03-08T00:28:14;10.25;;;6.30;;
75984;SDS011;65033;44.660;37.758;2024-03-08T00:29:19;8.40;;;6.57;;
75984;SDS011;65033;44.660;37.758;2024-03-08T00:30:25;6.85;;;4.80;;
75984;SDS011;65033;44.660;37.758;2024-03-08T00:31:28;9.40;;;6.70;;
75984;SDS011;65033;44.660;37.758;2024-03-08T00:32:33;8.40;;;5.72;;
75984;SDS011;65033;44.660;37.758;2024-03-08T00:33:37;9.30;;;6.13;;
75984;SDS011;65033;44.660;37.758;2024-03-08T00:34:42;6.30;;;4.88;;
75984;SDS011;65033;44.660;37.758;2024-03-08T00:35:46;10.02;;;6.32;;
75984;SDS011;65033;44.660;37.758;2024-03-08T00:36:51;9.57;;;6.35;;
75984;SDS011;65033;44.660;37.758;2024-03-08T00:37:55;9.98;;;6.57;;
75984;SDS011;65033;44.660;37.758;2024-03-08T00:39:02;11.18;;;6.60;;
75984;SDS011;65033;44.660;37.758;2024-03-08T00:40:09;8.90;;;6.25;;
75984;SDS011;65033;44.660;37.758;2024-03-08T00:41:13;9.98;;;6.57;;
75984;SDS011;65033;44.660;37.758;2024-03-08T00:42:17;10.48;;;6.97;;
75984;SDS011;65033;44.660;37.758;2024-03-08T00:43:21;11.98;;;7.35;;
75984;SDS011;65033;44.660;37.758;2024-03-08T00:44:25;11.30;;;6.80;;
75984;SDS011;65033;44.660;37.758;2024-03-08T00:45:35;9.50;;;6.35;;
75984;SDS011;65033;44.660;37.758;2024-03-08T00:46:39;9.98;;;5.45;;
75984;SDS011;65033;44.660;37.758;2024-03-08T00:47:43;10.13;;;7.50;;
75984;SDS011;65033;44.660;37.758;2024-03-08T00:48:47;10.90;;;6.70;;
75984;SDS011;65033;44.660;37.758;2024-03-08T00:49:50;8.85;;;5.63;;
75984;SDS011;65033;44.660;37.758;2024-03-08T00:50:54;11.13;;;6.55;;
75984;SDS011;65033;44.660;37.758;2024-03-08T00:51:59;11.85;;;6.32;;
75984;SDS011;65033;44.660;37.758;2024-03-08T00:53:03;10.10;;;6.63;;
75984;SDS011;65033;44.660;37.758;2024-03-08T00:54:07;12.02;;;6.88;;
75984;SDS011;65033;44.660;37.758;2024-03-08T00:55:11;7.93;;;5.55;;
75984;SDS011;65033;44.660;37.758;2024-03-08T00:56:15;10.15;;;4.82;;
75984;SDS011;65033;44.660;37.758;2024-03-08T00:57:18;8.75;;;5.97;;
75984;SDS011;65033;44.660;37.758;2024-03-08T00:58:22;11.30;;;5.65;;
75984;SDS011;65033;44.660;37.758;2024-03-08T00:59:26;8.48;;;6.05;;
75984;SDS011;65033;44.660;37.758;2024-03-08T01:00:30;10.00;;;6.18;;
75984;SDS011;65033;44.660;37.758;2024-03-08T01:01:34;8.15;;;5.68;;
75984;SDS011;65033;44.660;37.758;2024-03-08T01:02:38;9.43;;;5.95;;
75984;SDS011;65033;44.660;37.758;2024-03-08T01:03:42;9.25;;;5.38;;
75984;SDS011;65033;44.660;37.758;2024-03-08T01:04:46;9.57;;;5.75;;
75984;SDS011;65033;44.660;37.758;2024-03-08T01:05:50;9.10;;;5.97;;
75984;SDS011;65033;44.660;37.758;2024-03-08T01:06:54;9.77;;;5.45;;
75984;SDS011;65033;44.660;37.758;2024-03-08T01:08:00;7.38;;;5.00;;
75984;SDS011;65033;44.660;37.758;2024-03-08T01:09:06;8.80;;;6.15;;
75984;SDS011;65033;44.660;37.758;2024-03-08T01:10:10;9.52;;;5.55;;
75984;SDS011;65033;44.660;37.758;2024-03-08T01:11:13;9.60;;;5.93;;
75984;SDS011;65033;44.660;37.758;2024-03-08T01:12:17;10.13;;;5.90;;
75984;SDS011;65033;44.660;37.758;2024-03-08T01:13:21;9.65;;;6.43;;
75984;SDS011;65033;44.660;37.758;2024-03-08T01:14:25;7.25;;;5.68;;
75984;SDS011;65033;44.660;37.758;2024-03-08T01:15:28;8.23;;;5.68;;
75984;SDS011;65033;44.660;37.758;2024-03-08T01:16:33;9.30;;;5.75;;
75984;SDS011;65033;44.660;37.758;2024-03-08T01:17:36;8.48;;;5.50;;
75984;SDS011;65033;44.660;37.758;2024-03-08T01:18:40;9.27;;;5.93;;
75984;SDS011;65033;44.660;37.758;2024-03-08T01:19:44;9.32;;;5.80;;
75984;SDS011;65033;44.660;37.758;2024-03-08T01:20:48;8.68;;;6.30;;
75984;SDS011;65033;44.660;37.758;2024-03-08T01:21:52;10.10;;;6.68;;
75984;SDS011;65033;44.660;37.758;2024-03-08T01:22:55;9.70;;;6.47;;
75984;SDS011;65033;44.660;37.758;2024-03-08T01:24:01;9.65;;;6.43;;
75984;SDS011;65033;44.660;37.758;2024-03-08T01:25:05;8.45;;;6.15;;
75984;SDS011;65033;44.660;37.758;2024-03-08T01:26:11;8.65;;;5.80;;
75984;SDS011;65033;44.660;37.758;2024-03-08T01:27:15;9.35;;;6.28;;
75984;SDS011;65033;44.660;37.758;2024-03-08T01:28:18;10.88;;;6.07;;
75984;SDS011;65033;44.660;37.758;2024-03-08T01:29:23;12.05;;;6.40;;
75984;SDS011;65033;44.660;37.758;2024-03-08T01:30:26;9.52;;;5.85;;
75984;SDS011;65033;44.660;37.758;2024-03-08T01:31:31;8.40;;;5.57;;
75984;SDS011;65033;44.660;37.758;2024-03-08T01:32:34;11.15;;;6.72;;
75984;SDS011;65033;44.660;37.758;2024-03-08T01:33:38;11.82;;;6.85;;
75984;SDS011;65033;44.660;37.758;2024-03-08T01:34:43;10.57;;;7.25;;
75984;SDS011;65033;44.660;37.758;2024-03-08T01:35:47;9.60;;;6.60;;
75984;SDS011;65033;44.660;37.758;2024-03-08T01:36:51;10.30;;;6.72;;
75984;SDS011;65033;44.660;37.758;2024-03-08T01:37:55;10.18;;;6.43;;
75984;SDS011;65033;44.660;37.758;2024-03-08T01:38:58;10.68;;;7.07;;
75984;SDS011;65033;44.660;37.758;2024-03-08T01:40:04;9.50;;;6.03;;
75984;SDS011;65033;44.660;37.758;2024-03-08T01:41:09;10.85;;;7.15;;
75984;SDS011;65033;44.660;37.758;2024-03-08T01:42:15;12.20;;;7.28;;
75984;SDS011;65033;44.660;37.758;2024-03-08T01:43:20;14.88;;;5.80;;
75984;SDS011;65033;44.660;37.758;2024-03-08T01:44:25;11.48;;;6.97;;
75984;SDS011;65033;44.660;37.758;2024-03-08T01:45:29;10.93;;;6.45;;
75984;SDS011;65033;44.660;37.758;2024-03-08T01:46:37;10.10;;;6.38;;
75984;SDS011;65033;44.660;37.758;2024-03-08T01:47:41;9.75;;;5.88;;
75984;SDS011;65033;44.660;37.758;2024-03-08T01:48:45;8.20;;;5.55;;
75984;SDS011;65033;44.660;37.758;2024-03-08T01:49:49;10.82;;;6.75;;
75984;SDS011;65033;44.660;37.758;2024-03-08T01:50:53;12.57;;;6.57;;
75984;SDS011;65033;44.660;37.758;2024-03-08T01:51:58;9.27;;;6.03;;
75984;SDS011;65033;44.660;37.758;2024-03-08T01:53:02;8.85;;;6.38;;
75984;SDS011;65033;44.660;37.758;2024-03-08T01:54:09;10.48;;;6.45;;
75984;SDS011;65033;44.660;37.758;2024-03-08T01:55:14;12.93;;;7.97;;
75984;SDS011;65033;44.660;37.758;2024-03-08T01:56:17;13.55;;;7.90;;
75984;SDS011;65033;44.660;37.758;2024-03-08T01:57:21;10.98;;;7.57;;
75984;SDS011;65033;44.660;37.758;2024-03-08T01:58:26;9.68;;;6.22;;
75984;SDS011;65033;44.660;37.758;2024-03-08T01:59:31;11.30;;;7.07;;
75984;SDS011;65033;44.660;37.758;2024-03-08T02:00:35;10.68;;;6.45;;
75984;SDS011;65033;44.660;37.758;2024-03-08T02:01:44;15.73;;;7.53;;
75984;SDS011;65033;44.660;37.758;2024-03-08T02:02:48;11.30;;;6.75;;
75984;SDS011;65033;44.660;37.758;2024-03-08T02:03:54;12.20;;;6.78;;
75984;SDS011;65033;44.660;37.758;2024-03-08T02:04:57;11.60;;;6.47;;
75984;SDS011;65033;44.660;37.758;2024-03-08T02:06:03;10.85;;;7.15;;
75984;SDS011;65033;44.660;37.758;2024-03-08T02:07:08;14.40;;;7.07;;
75984;SDS011;65033;44.660;37.758;2024-03-08T02:08:12;11.75;;;6.95;;
75984;SDS011;65033;44.660;37.758;2024-03-08T02:09:18;9.85;;;6.15;;
75984;SDS011;65033;44.660;37.758;2024-03-08T02:10:22;9.50;;;6.05;;
75984;SDS011;65033;44.660;37.758;2024-03-08T02:11:26;12.65;;;6.78;;
75984;SDS011;65033;44.660;37.758;2024-03-08T02:12:33;10.15;;;5.90;;
75984;SDS011;65033;44.660;37.758;2024-03-08T02:13:37;10.02;;;6.38;;
75984;SDS011;65033;44.660;37.758;2024-03-08T02:14:41;9.30;;;6.45;;
75984;SDS011;65033;44.660;37.758;2024-03-08T02:15:52;10.30;;;6.22;;
75984;SDS011;65033;44.660;37.758;2024-03-08T02:17:00;11.70;;;6.20;;
75984;SDS011;65033;44.660;37.758;2024-03-08T02:18:04;12.15;;;6.57;;
75984;SDS011;65033;44.660;37.758;2024-03-08T02:19:08;12.30;;;6.70;;
75984;SDS011;65033;44.660;37.758;2024-03-08T02:20:12;10.40;;;6.30;;
75984;SDS011;65033;44.660;37.758;2024-03-08T02:21:17;8.90;;;6.57;;
75984;SDS011;65033;44.660;37.758;2024-03-08T02:22:21;10.90;;;6.20;;
75984;SDS011;65033;44.660;37.758;2024-03-08T02:23:25;10.25;;;5.55;;
75984;SDS011;65033;44.660;37.758;2024-03-08T02:24:29;10.05;;;6.50;;
75984;SDS011;65033;44.660;37.758;2024-03-08T02:25:33;10.13;;;6.63;;
75984;SDS011;65033;44.660;37.758;2024-03-08T02:26:38;10.10;;;6.65;;
75984;SDS011;65033;44.660;37.758;2024-03-08T02:27:41;9.48;;;5.18;;
75984;SDS011;65033;44.660;37.758;2024-03-08T02:28:45;9.32;;;6.55;;
75984;SDS011;65033;44.660;37.758;2024-03-08T02:29:49;10.45;;;6.60;;
75984;SDS011;65033;44.660;37.758;2024-03-08T02:30:53;9.80;;;6.40;;
75984;SDS011;65033;44.660;37.758;2024-03-08T02:31:58;10.00;;;6.15;;
75984;SDS011;65033;44.660;37.758;2024-03-08T02:33:02;9.93;;;6.30;;
75984;SDS011;65033;44.660;37.758;2024-03-08T02:34:06;11.52;;;6.72;;
75984;SDS011;65033;44.660;37.758;2024-03-08T02:35:10;8.45;;;6.03;;
75984;SDS011;65033;44.660;37.758;2024-03-08T02:36:14;11.63;;;6.43;;
75984;SDS011;65033;44.660;37.758;2024-03-08T02:37:20;12.43;;;6.38;;
75984;SDS011;65033;44.660;37.758;2024-03-08T02:38:24;8.18;;;5.95;;
75984;SDS011;65033;44.660;37.758;2024-03-08T02:39:27;9.20;;;6.28;;
75984;SDS011;65033;44.660;37.758;2024-03-08T02:40:31;10.32;;;5.80;;
75984;SDS011;65033;44.660;37.758;2024-03-08T02:41:35;9.18;;;6.05;;
75984;SDS011;65033;44.660;37.758;2024-03-08T02:42:38;10.55;;;6.65;;
75984;SDS011;65033;44.660;37.758;2024-03-08T02:43:42;9.00;;;6.28;;
75984;SDS011;65033;44.660;37.758;2024-03-08T02:44:48;9.75;;;6.50;;
75984;SDS011;65033;44.660;37.758;2024-03-08T02:45:52;10.77;;;6.63;;
75984;SDS011;65033;44.660;37.758;2024-03-08T02:46:55;10.43;;;6.25;;
75984;SDS011;65033;44.660;37.758;2024-03-08T02:47:59;10.05;;;6.55;;
75984;SDS011;65033;44.660;37.758;2024-03-08T02:49:03;10.18;;;5.82;;
75984;SDS011;65033;44.660;37.758;2024-03-08T02:50:07;9.70;;;5.82;;
75984;SDS011;65033;44.660;37.758;2024-03-08T02:51:11;8.10;;;5.35;;
75984;SDS011;65033;44.660;37.758;2024-03-08T02:52:16;10.15;;;6.50;;
75984;SDS011;65033;44.660;37.758;2024-03-08T02:53:21;9.93;;;6.35;;
75984;SDS011;65033;44.660;37.758;2024-03-08T02:54:25;9.68;;;6.05;;
75984;SDS011;65033;44.660;37.758;2024-03-08T02:55:28;11.23;;;6.63;;
75984;SDS011;65033;44.660;37.758;2024-03-08T02:56:32;9.82;;;5.82;;
75984;SDS011;65033;44.660;37.758;2024-03-08T02:57:37;10.45;;;5.65;;
75984;SDS011;65033;44.660;37.758;2024-03-08T02:58:41;9.75;;;6.35;;
75984;SDS011;65033;44.660;37.758;2024-03-08T02:59:45;11.00;;;6.45;;
75984;SDS011;65033;44.660;37.758;2024-03-08T03:00:49;9.93;;;6.05;;
75984;SDS011;65033;44.660;37.758;2024-03-08T03:01:55;11.18;;;6.97;;
75984;SDS011;65033;44.660;37.758;2024-03-08T03:02:58;11.10;;;7.05;;
75984;SDS011;65033;44.660;37.758;2024-03-08T03:04:02;11.05;;;7.43;;
75984;SDS011;65033;44.660;37.758;2024-03-08T03:05:06;10.85;;;6.47;;
75984;SDS011;65033;44.660;37.758;2024-03-08T03:06:12;9.27;;;6.28;;
75984;SDS011;65033;44.660;37.758;2024-03-08T03:07:16;12.55;;;7.15;;
75984;SDS011;65033;44.660;37.758;2024-03-08T03:08:21;11.75;;;6.40;;
75984;SDS011;65033;44.660;37.758;2024-03-08T03:09:25;13.32;;;8.10;;
75984;SDS011;65033;44.660;37.758;2024-03-08T03:10:30;12.00;;;7.43;;
75984;SDS011;65033;44.660;37.758;2024-03-08T03:11:34;11.02;;;6.57;;
75984;SDS011;65033;44.660;37.758;2024-03-08T03:12:37;11.75;;;7.13;;
75984;SDS011;65033;44.660;37.758;2024-03-08T03:13:41;9.18;;;5.85;;
75984;SDS011;65033;44.660;37.758;2024-03-08T03:14:51;10.65;;;7.85;;
75984;SDS011;65033;44.660;37.758;2024-03-08T03:15:54;10.27;;;5.95;;
75984;SDS011;65033;44.660;37.758;2024-03-08T03:17:00;10.95;;;7.28;;
75984;SDS011;65033;44.660;37.758;2024-03-08T03:18:05;13.02;;;7.25;;
75984;SDS011;65033;44.660;37.758;2024-03-08T03:19:10;12.82;;;7.90;;
75984;SDS011;65033;44.660;37.758;2024-03-08T03:20:14;14.23;;;8.20;;
75984;SDS011;65033;44.660;37.758;2024-03-08T03:21:27;11.88;;;7.30;;
75984;SDS011;65033;44.660;37.758;2024-03-08T03:22:34;9.05;;;5.63;;
75984;SDS011;65033;44.660;37.758;2024-03-08T03:23:40;9.95;;;6.15;;
75984;SDS011;65033;44.660;37.758;2024-03-08T03:24:45;12.30;;;7.43;;
75984;SDS011;65033;44.660;37.758;2024-03-08T03:25:54;10.95;;;6.45;;
75984;SDS011;65033;44.660;37.758;2024-03-08T03:27:00;11.48;;;6.65;;
75984;SDS011;65033;44.660;37.758;2024-03-08T03:28:04;14.48;;;8.70;;
75984;SDS011;65033;44.660;37.758;2024-03-08T03:29:10;16.25;;;8.07;;
75984;SDS011;65033;44.660;37.758;2024-03-08T03:30:14;13.07;;;6.93;;
75984;SDS011;65033;44.660;37.758;2024-03-08T03:31:24;10.38;;;7.10;;
75984;SDS011;65033;44.660;37.758;2024-03-08T03:32:28;13.98;;;7.20;;
75984;SDS011;65033;44.660;37.758;2024-03-08T03:33:32;14.50;;;9.10;;
75984;SDS011;65033;44.660;37.758;2024-03-08T03:34:37;15.23;;;8.55;;
75984;SDS011;65033;44.660;37.758;2024-03-08T03:35:41;12.63;;;8.65;;
75984;SDS011;65033;44.660;37.758;2024-03-08T03:36:45;14.55;;;8.15;;
75984;SDS011;65033;44.660;37.758;2024-03-08T03:37:50;15.50;;;8.45;;
75984;SDS011;65033;44.660;37.758;2024-03-08T03:39:13;13.23;;;6.55;;
75984;SDS011;65033;44.660;37.758;2024-03-08T03:40:19;13.55;;;6.95;;
75984;SDS011;65033;44.660;37.758;2024-03-08T03:41:22;10.27;;;7.55;;
75984;SDS011;65033;44.660;37.758;2024-03-08T03:42:26;11.57;;;6.93;;
75984;SDS011;65033;44.660;37.758;2024-03-08T03:43:30;13.55;;;7.45;;
75984;SDS011;65033;44.660;37.758;2024-03-08T03:44:34;12.55;;;7.60;;
75984;SDS011;65033;44.660;37.758;2024-03-08T03:45:38;13.13;;;8.15;;
75984;SDS011;65033;44.660;37.758;2024-03-08T03:46:44;12.35;;;7.35;;
75984;SDS011;65033;44.660;37.758;2024-03-08T03:47:47;12.63;;;7.78;;
75984;SDS011;65033;44.660;37.758;2024-03-08T03:48:51;12.70;;;7.28;;
75984;SDS011;65033;44.660;37.758;2024-03-08T03:49:55;12.43;;;7.10;;
75984;SDS011;65033;44.660;37.758;2024-03-08T03:50:59;10.13;;;6.85;;
75984;SDS011;65033;44.660;37.758;2024-03-08T03:52:02;12.88;;;6.90;;
75984;SDS011;65033;44.660;37.758;2024-03-08T03:53:07;9.93;;;6.35;;
75984;SDS011;65033;44.660;37.758;2024-03-08T03:54:12;13.30;;;7.18;;
75984;SDS011;65033;44.660;37.758;2024-03-08T03:55:17;12.77;;;8.50;;
75984;SDS011;65033;44.660;37.758;2024-03-08T03:56:24;7.60;;;4.57;;
75984;SDS011;65033;44.660;37.758;2024-03-08T03:57:29;14.68;;;7.95;;
75984;SDS011;65033;44.660;37.758;2024-03-08T03:58:32;16.50;;;9.55;;
75984;SDS011;65033;44.660;37.758;2024-03-08T03:59:36;15.05;;;8.10;;
75984;SDS011;65033;44.660;37.758;2024-03-08T04:00:40;13.18;;;8.23;;
75984;SDS011;65033;44.660;37.758;2024-03-08T04:01:44;14.27;;;8.45;;
75984;SDS011;65033;44.660;37.758;2024-03-08T04:02:49;10.65;;;6.75;;
75984;SDS011;65033;44.660;37.758;2024-03-08T04:03:53;13.55;;;7.95;;
75984;SDS011;65033;44.660;37.758;2024-03-08T04:04:57;12.35;;;7.35;;
75984;SDS011;65033;44.660;37.758;2024-03-08T04:06:01;12.45;;;6.95;;
75984;SDS011;65033;44.660;37.758;2024-03-08T04:07:06;13.27;;;7.70;;
75984;SDS011;65033;44.660;37.758;2024-03-08T04:08:10;12.85;;;7.60;;
75984;SDS011;65033;44.660;37.758;2024-03-08T04:09:15;13.88;;;8.43;;
75984;SDS011;65033;44.660;37.758;2024-03-08T04:10:21;12.52;;;8.35;;
75984;SDS011;65033;44.660;37.758;2024-03-08T04:11:25;13.98;;;7.63;;
75984;SDS011;65033;44.660;37.758;2024-03-08T04:12:29;11.85;;;7.10;;
75984;SDS011;65033;44.660;37.758;2024-03-08T04:13:33;12.23;;;7.50;;
75984;SDS011;65033;44.660;37.758;2024-03-08T04:14:38;13.07;;;7.28;;
75984;SDS011;65033;44.660;37.758;2024-03-08T04:15:44;12.43;;;7.75;;
75984;SDS011;65033;44.660;37.758;2024-03-08T04:16:50;12.77;;;7.93;;
75984;SDS011;65033;44.660;37.758;2024-03-08T04:17:53;12.23;;;7.25;;
75984;SDS011;65033;44.660;37.758;2024-03-08T04:18:57;16.23;;;8.75;;
75984;SDS011;65033;44.660;37.758;2024-03-08T04:20:01;16.98;;;8.73;;
75984;SDS011;65033;44.660;37.758;2024-03-08T04:21:07;14.80;;;8.25;;
75984;SDS011;65033;44.660;37.758;2024-03-08T04:22:11;11.85;;;7.53;;
75984;SDS011;65033;44.660;37.758;2024-03-08T04:23:15;16.10;;;9.57;;
75984;SDS011;65033;44.660;37.758;2024-03-08T04:24:21;13.35;;;7.03;;
75984;SDS011;65033;44.660;37.758;2024-03-08T04:25:25;15.30;;;8.50;;
75984;SDS011;65033;44.660;37.758;2024-03-08T04:26:29;15.88;;;10.00;;
75984;SDS011;65033;44.660;37.758;2024-03-08T04:27:33;17.17;;;10.80;;
75984;SDS011;65033;44.660;37.758;2024-03-08T04:28:37;14.98;;;8.30;;
75984;SDS011;65033;44.660;37.758;2024-03-08T04:29:42;17.98;;;10.07;;
75984;SDS011;65033;44.660;37.758;2024-03-08T04:30:46;15.43;;;9.73;;
75984;SDS011;65033;44.660;37.758;2024-03-08T04:31:49;19.95;;;11.70;;
75984;SDS011;65033;44.660;37.758;2024-03-08T04:32:56;14.55;;;8.40;;
75984;SDS011;65033;44.660;37.758;2024-03-08T04:34:00;14.88;;;9.27;;
75984;SDS011;65033;44.660;37.758;2024-03-08T04:35:04;16.70;;;9.20;;
75984;SDS011;65033;44.660;37.758;2024-03-08T04:36:08;19.92;;;9.88;;
75984;SDS011;65033;44.660;37.758;2024-03-08T04:37:16;13.85;;;8.68;;
75984;SDS011;65033;44.660;37.758;2024-03-08T04:39:30;12.90;;;7.53;;
75984;SDS011;65033;44.660;37.758;2024-03-08T04:40:34;14.93;;;8.60;;
75984;SDS011;65033;44.660;37.758;2024-03-08T04:41:38;11.77;;;7.97;;
75984;SDS011;65033;44.660;37.758;2024-03-08T04:42:42;20.15;;;10.35;;
75984;SDS011;65033;44.660;37.758;2024-03-08T04:43:46;14.98;;;9.43;;
75984;SDS011;65033;44.660;37.758;2024-03-08T04:44:50;14.77;;;8.82;;
75984;SDS011;65033;44.660;37.758;2024-03-08T04:45:53;17.02;;;8.90;;
75984;SDS011;65033;44.660;37.758;2024-03-08T04:46:57;16.52;;;9.02;;
75984;SDS011;65033;44.660;37.758;2024-03-08T04:48:01;15.02;;;8.57;;
75984;SDS011;65033;44.660;37.758;2024-03-08T04:49:04;14.88;;;8.70;;
75984;SDS011;65033;44.660;37.758;2024-03-08T04:50:09;18.33;;;9.45;;
75984;SDS011;65033;44.660;37.758;2024-03-08T04:51:14;15.13;;;8.77;;
75984;SDS011;65033;44.660;37.758;2024-03-08T04:52:18;12.23;;;8.13;;
75984;SDS011;65033;44.660;37.758;2024-03-08T04:53:22;14.90;;;8.57;;
75984;SDS011;65033;44.660;37.758;2024-03-08T04:54:26;15.18;;;9.35;;
75984;SDS011;65033;44.660;37.758;2024-03-08T04:55:31;16.92;;;9.40;;
75984;SDS011;65033;44.660;37.758;2024-03-08T04:56:35;13.73;;;8.52;;
75984;SDS011;65033;44.660;37.758;2024-03-08T04:57:38;17.02;;;7.93;;
75984;SDS011;65033;44.660;37.758;2024-03-08T04:58:42;14.30;;;9.15;;
75984;SDS011;65033;44.660;37.758;2024-03-08T04:59:46;16.42;;;9.20;;
75984;SDS011;65033;44.660;37.758;2024-03-08T05:00:50;15.55;;;9.32;;
75984;SDS011;65033;44.660;37.758;2024-03-08T05:01:55;23.27;;;12.35;;
75984;SDS011;65033;44.660;37.758;2024-03-08T05:03:02;13.00;;;7.20;;
75984;SDS011;65033;44.660;37.758;2024-03-08T05:04:07;20.42;;;10.27;;
75984;SDS011;65033;44.660;37.758;2024-03-08T05:05:11;21.10;;;11.88;;
75984;SDS011;65033;44.660;37.758;2024-03-08T05:06:15;23.65;;;12.80;;
75984;SDS011;65033;44.660;37.758;2024-03-08T05:07:19;21.15;;;11.25;;
75984;SDS011;65033;44.660;37.758;2024-03-08T05:08:23;15.57;;;10.00;;
75984;SDS011;65033;44.660;37.758;2024-03-08T05:09:26;17.90;;;10.63;;
75984;SDS011;65033;44.660;37.758;2024-03-08T05:10:35;18.58;;;8.70;;
75984;SDS011;65033;44.660;37.758;2024-03-08T05:11:39;14.77;;;9.13;;
75984;SDS011;65033;44.660;37.758;2024-03-08T05:12:43;17.10;;;8.15;;
75984;SDS011;65033;44.660;37.758;2024-03-08T05:13:47;19.77;;;10.32;;
75984;SDS011;65033;44.660;37.758;2024-03-08T05:14:51;17.17;;;10.07;;
75984;SDS011;65033;44.660;37.758;2024-03-08T05:15:54;17.75;;;9.30;;
75984;SDS011;65033;44.660;37.758;2024-03-08T05:17:01;15.75;;;8.90;;
75984;SDS011;65033;44.660;37.758;2024-03-08T05:18:04;14.82;;;8.23;;
75984;SDS011;65033;44.660;37.758;2024-03-08T05:19:08;14.95;;;8.77;;
75984;SDS011;65033;44.660;37.758;2024-03-08T05:20:12;15.50;;;8.80;;
75984;SDS011;65033;44.660;37.758;2024-03-08T05:21:16;14.73;;;8.68;;
75984;SDS011;65033;44.660;37.758;2024-03-08T05:22:22;15.20;;;8.75;;
75984;SDS011;65033;44.660;37.758;2024-03-08T05:23:26;15.75;;;8.32;;
75984;SDS011;65033;44.660;37.758;2024-03-08T05:24:30;18.42;;;8.93;;
75984;SDS011;65033;44.660;37.758;2024-03-08T05:25:34;15.10;;;8.30;;
75984;SDS011;65033;44.660;37.758;2024-03-08T05:26:39;13.05;;;7.72;;
75984;SDS011;65033;44.660;37.758;2024-03-08T05:27:42;15.00;;;9.05;;
75984;SDS011;65033;44.660;37.758;2024-03-08T05:28:46;17.83;;;8.55;;
75984;SDS011;65033;44.660;37.758;2024-03-08T05:29:50;16.63;;;8.95;;
75984;SDS011;65033;44.660;37.758;2024-03-08T05:30:54;14.95;;;9.02;;
75984;SDS011;65033;44.660;37.758;2024-03-08T05:31:59;18.50;;;8.43;;
75984;SDS011;65033;44.660;37.758;2024-03-08T05:33:03;20.73;;;10.40;;
75984;SDS011;65033;44.660;37.758;2024-03-08T05:34:07;15.48;;;7.78;;
75984;SDS011;65033;44.660;37.758;2024-03-08T05:35:12;16.60;;;8.38;;
75984;SDS011;65033;44.660;37.758;2024-03-08T05:36:15;18.45;;;9.10;;
75984;SDS011;65033;44.660;37.758;2024-03-08T05:37:19;22.75;;;9.10;;
75984;SDS011;65033;44.660;37.758;2024-03-08T05:38:29;18.23;;;10.43;;
75984;SDS011;65033;44.660;37.758;2024-03-08T05:39:34;16.80;;;9.75;;
75984;SDS011;65033;44.660;37.758;2024-03-08T05:40:42;15.43;;;8.30;;
75984;SDS011;65033;44.660;37.758;2024-03-08T05:41:46;15.35;;;8.50;;
75984;SDS011;65033;44.660;37.758;2024-03-08T05:42:50;15.50;;;8.82;;
75984;SDS011;65033;44.660;37.758;2024-03-08T05:43:53;15.95;;;9.25;;
75984;SDS011;65033;44.660;37.758;2024-03-08T05:44:57;18.25;;;9.50;;
75984;SDS011;65033;44.660;37.758;2024-03-08T05:46:01;15.80;;;8.98;;
75984;SDS011;65033;44.660;37.758;2024-03-08T05:47:07;15.15;;;9.27;;
75984;SDS011;65033;44.660;37.758;2024-03-08T05:48:11;18.20;;;9.05;;
75984;SDS011;65033;44.660;37.758;2024-03-08T05:49:15;16.50;;;8.20;;
75984;SDS011;65033;44.660;37.758;2024-03-08T05:50:19;15.20;;;8.38;;
75984;SDS011;65033;44.660;37.758;2024-03-08T05:51:25;13.25;;;8.43;;
75984;SDS011;65033;44.660;37.758;2024-03-08T05:52:30;18.05;;;9.25;;
75984;SDS011;65033;44.660;37.758;2024-03-08T05:53:33;30.35;;;13.90;;
75984;SDS011;65033;44.660;37.758;2024-03-08T05:54:37;23.15;;;13.27;;
75984;SDS011;65033;44.660;37.758;2024-03-08T05:55:42;20.63;;;10.57;;
75984;SDS011;65033;44.660;37.758;2024-03-08T05:56:46;14.73;;;9.60;;
75984;SDS011;65033;44.660;37.758;2024-03-08T05:57:50;14.02;;;8.30;;
75984;SDS011;65033;44.660;37.758;2024-03-08T05:58:56;17.75;;;9.20;;
75984;SDS011;65033;44.660;37.758;2024-03-08T06:00:01;14.90;;;9.35;;
75984;SDS011;65033;44.660;37.758;2024-03-08T06:01:14;13.65;;;8.63;;
75984;SDS011;65033;44.660;37.758;2024-03-08T06:02:19;14.43;;;7.93;;
75984;SDS011;65033;44.660;37.758;2024-03-08T06:03:23;15.60;;;9.23;;
75984;SDS011;65033;44.660;37.758;2024-03-08T06:04:27;13.52;;;8.05;;
75984;SDS011;65033;44.660;37.758;2024-03-08T06:05:31;16.17;;;8.80;;
75984;SDS011;65033;44.660;37.758;2024-03-08T06:06:36;15.35;;;8.13;;
75984;SDS011;65033;44.660;37.758;2024-03-08T06:07:40;14.15;;;7.30;;
75984;SDS011;65033;44.660;37.758;2024-03-08T06:08:44;22.15;;;9.93;;
75984;SDS011;65033;44.660;37.758;2024-03-08T06:09:48;15.80;;;8.65;;
75984;SDS011;65033;44.660;37.758;2024-03-08T06:10:53;18.20;;;8.20;;
75984;SDS011;65033;44.660;37.758;2024-03-08T06:11:57;16.15;;;8.98;;
75984;SDS011;65033;44.660;37.758;2024-03-08T06:13:00;16.73;;;8.65;;
75984;SDS011;65033;44.660;37.758;2024-03-08T06:14:04;13.57;;;8.80;;
75984;SDS011;65033;44.660;37.758;2024-03-08T06:15:09;14.30;;;7.93;;
75984;SDS011;65033;44.660;37.758;2024-03-08T06:16:13;14.10;;;8.15;;
75984;SDS011;65033;44.660;37.758;2024-03-08T06:17:18;18.75;;;8.68;;
75984;SDS011;65033;44.660;37.758;2024-03-08T06:18:22;14.23;;;7.80;;
75984;SDS011;65033;44.660;37.758;2024-03-08T06:19:27;14.93;;;8.18;;
75984;SDS011;65033;44.660;37.758;2024-03-08T06:20:31;17.60;;;10.10;;
75984;SDS011;65033;44.660;37.758;2024-03-08T06:21:37;20.58;;;11.40;;